sensor_id;sensor_type;location;lat;lon;timestamp;P1;durP1;ratioP1;P2;durP2;ratioP2
20142;SDS011;10509;46.476;7.134;2023-03-14T00:01:24;0.27;;;0.17;;
20142;SDS011;10509;46.476;7.134;2023-03-14T00:03:51;0.77;;;0.20;;
20142;SDS011;10509;46.476;7.134;2023-03-14T00:06:17;1.40;;;0.20;;
20142;SDS011;10509;46.476;7.134;2023-03-14T00:08:44;0.30;;;0.20;;
20142;SDS011;10509;46.476;7.134;2023-03-14T00:11:11;0.23;;;0.10;;
20142;SDS011;10509;46.476;7.134;2023-03-14T00:13:37;0.20;;;0.20;;
20142;SDS011;10509;46.476;7.134;2023-03-14T00:16:04;0.23;;;0.10;;
20142;SDS011;10509;46.476;7.134;2023-03-14T00:18:31;0.20;;;0.10;;
20142;SDS011;10509;46.476;7.134;2023-03-14T00:20:58;0.77;;;0.30;;
20142;SDS011;10509;46.476;7.134;2023-03-14T00:23:24;0.30;;;0.10;;
20142;SDS011;10509;46.476;7.134;2023-03-14T00:25:50;0.10;;;0.10;;
20142;SDS011;10509;46.476;7.134;2023-03-14T00:28:16;0.40;;;0.20;;
20142;SDS011;10509;46.476;7.134;2023-03-14T00:30:42;2.00;;;0.10;;
20142;SDS011;10509;46.476;7.134;2023-03-14T00:33:09;0.73;;;0.20;;
20142;SDS011;10509;46.476;7.134;2023-03-14T00:35:34;0.30;;;0.10;;
20142;SDS011;10509;46.476;7.134;2023-03-14T00:38:00;0.27;;;0.20;;
20142;SDS011;10509;46.476;7.134;2023-03-14T00:40:26;0.33;;;0.20;;
20142;SDS011;10509;46.476;7.134;2023-03-14T00:42:52;0.27;;;0.20;;
20142;SDS011;10509;46.476;7.134;2023-03-14T00:45:18;0.40;;;0.20;;
20142;SDS011;10509;46.476;7.134;2023-03-14T00:47:44;1.03;;;0.10;;
20142;SDS011;10509;46.476;7.134;2023-03-14T00:50:11;0.50;;;0.20;;
20142;SDS011;10509;46.476;7.134;2023-03-14T00:52:37;0.50;;;0.10;;
20142;SDS011;10509;46.476;7.134;2023-03-14T00:55:03;0.20;;;0.10;;
20142;SDS011;10509;46.476;7.134;2023-03-14T00:57:29;0.30;;;0.10;;
20142;SDS011;10509;46.476;7.134;2023-03-14T00:59:55;0.10;;;0.10;;
20142;SDS011;10509;46.476;7.134;2023-03-14T01:02:21;0.20;;;0.10;;
20142;SDS011;10509;46.476;7.134;2023-03-14T01:04:48;0.30;;;0.10;;
20142;SDS011;10509;46.476;7.134;2023-03-14T01:07:14;0.20;;;0.20;;
20142;SDS011;10509;46.476;7.134;2023-03-14T01:09:41;0.20;;;0.10;;
20142;SDS011;10509;46.476;7.134;2023-03-14T01:12:26;0.40;;;0.10;;
20142;SDS011;10509;46.476;7.134;2023-03-14T01:24:22;0.10;;;0.10;;
20142;SDS011;10509;46.476;7.134;2023-03-14T01:51:38;0.20;;;0.20;;
20142;SDS011;10509;46.476;7.134;2023-03-14T02:00:39;0.20;;;0.10;;
20142;SDS011;10509;46.476;7.134;2023-03-14T02:18:04;0.10;;;0.10;;
20142;SDS011;10509;46.476;7.134;2023-03-14T02:20:54;0.20;;;0.10;;
20142;SDS011;10509;46.476;7.134;2023-03-14T02:35:58;0.57;;;0.33;;
20142;SDS011;10509;46.476;7.134;2023-03-14T02:38:27;0.10;;;0.10;;
20142;SDS011;10509;46.476;7.134;2023-03-14T02:40:54;0.63;;;0.20;;
20142;SDS011;10509;46.476;7.134;2023-03-14T02:43:20;0.20;;;0.20;;
20142;SDS011;10509;46.476;7.134;2023-03-14T02:45:47;0.20;;;0.20;;
20142;SDS011;10509;46.476;7.134;2023-03-14T02:50:43;0.27;;;0.20;;
20142;SDS011;10509;46.476;7.134;2023-03-14T02:53:10;0.27;;;0.20;;
20142;SDS011;10509;46.476;7.134;2023-03-14T02:55:37;0.37;;;0.20;;
20142;SDS011;10509;46.476;7.134;2023-03-14T02:58:03;0.50;;;0.20;;
20142;SDS011;10509;46.476;7.134;2023-03-14T03:00:29;0.40;;;0.20;;
20142;SDS011;10509;46.476;7.134;2023-03-14T03:02:55;0.33;;;0.20;;
20142;SDS011;10509;46.476;7.134;2023-03-14T03:05:21;0.10;;;0.10;;
20142;SDS011;10509;46.476;7.134;2023-03-14T03:07:47;0.40;;;0.30;;
20142;SDS011;10509;46.476;7.134;2023-03-14T03:10:13;0.97;;;0.20;;
20142;SDS011;10509;46.476;7.134;2023-03-14T03:12:39;0.30;;;0.20;;
20142;SDS011;10509;46.476;7.134;2023-03-14T03:15:06;0.20;;;0.10;;
20142;SDS011;10509;46.476;7.134;2023-03-14T03:17:32;0.20;;;0.10;;
20142;SDS011;10509;46.476;7.134;2023-03-14T03:19:58;0.63;;;0.37;;
20142;SDS011;10509;46.476;7.134;2023-03-14T03:22:24;0.20;;;0.10;;
20142;SDS011;10509;46.476;7.134;2023-03-14T03:24:50;0.40;;;0.10;;
20142;SDS011;10509;46.476;7.134;2023-03-14T03:27:16;0.17;;;0.10;;
20142;SDS011;10509;46.476;7.134;2023-03-14T03:29:42;0.07;;;0.07;;
20142;SDS011;10509;46.476;7.134;2023-03-14T03:32:08;0.10;;;0.10;;
20142;SDS011;10509;46.476;7.134;2023-03-14T03:34:34;0.10;;;0.10;;
20142;SDS011;10509;46.476;7.134;2023-03-14T03:37:00;0.10;;;0.10;;
20142;SDS011;10509;46.476;7.134;2023-03-14T03:39:26;0.10;;;0.10;;
20142;SDS011;10509;46.476;7.134;2023-03-14T03:41:52;0.93;;;0.20;;
20142;SDS011;10509;46.476;7.134;2023-03-14T03:44:18;0.20;;;0.20;;
20142;SDS011;10509;46.476;7.134;2023-03-14T03:46:44;0.60;;;0.20;;
20142;SDS011;10509;46.476;7.134;2023-03-14T03:49:11;0.30;;;0.20;;
20142;SDS011;10509;46.476;7.134;2023-03-14T03:51:37;0.27;;;0.20;;
20142;SDS011;10509;46.476;7.134;2023-03-14T03:54:03;0.10;;;0.10;;
20142;SDS011;10509;46.476;7.134;2023-03-14T03:56:29;0.20;;;0.20;;
20142;SDS011;10509;46.476;7.134;2023-03-14T03:58:56;0.20;;;0.20;;
20142;SDS011;10509;46.476;7.134;2023-03-14T04:01:22;0.10;;;0.10;;
20142;SDS011;10509;46.476;7.134;2023-03-14T04:03:48;0.37;;;0.20;;
20142;SDS011;10509;46.476;7.134;2023-03-14T04:06:14;0.20;;;0.20;;
20142;SDS011;10509;46.476;7.134;2023-03-14T04:08:40;0.20;;;0.20;;
20142;SDS011;10509;46.476;7.134;2023-03-14T04:11:06;0.50;;;0.20;;
20142;SDS011;10509;46.476;7.134;2023-03-14T04:13:33;0.67;;;0.30;;
20142;SDS011;10509;46.476;7.134;2023-03-14T04:15:59;0.30;;;0.30;;
20142;SDS011;10509;46.476;7.134;2023-03-14T04:18:25;0.37;;;0.20;;
20142;SDS011;10509;46.476;7.134;2023-03-14T04:20:54;0.40;;;0.30;;
20142;SDS011;10509;46.476;7.134;2023-03-14T04:23:21;0.50;;;0.33;;
20142;SDS011;10509;46.476;7.134;2023-03-14T04:25:51;0.30;;;0.20;;
20142;SDS011;10509;46.476;7.134;2023-03-14T04:31:21;0.13;;;0.13;;
20142;SDS011;10509;46.476;7.134;2023-03-14T04:33:47;0.30;;;0.23;;
20142;SDS011;10509;46.476;7.134;2023-03-14T04:36:13;0.50;;;0.20;;
20142;SDS011;10509;46.476;7.134;2023-03-14T04:38:39;0.20;;;0.20;;
20142;SDS011;10509;46.476;7.134;2023-03-14T04:41:06;0.23;;;0.20;;
20142;SDS011;10509;46.476;7.134;2023-03-14T04:43:32;1.20;;;0.20;;
20142;SDS011;10509;46.476;7.134;2023-03-14T04:45:58;0.33;;;0.20;;
20142;SDS011;10509;46.476;7.134;2023-03-14T04:48:25;0.20;;;0.20;;
20142;SDS011;10509;46.476;7.134;2023-03-14T04:50:51;0.20;;;0.13;;
20142;SDS011;10509;46.476;7.134;2023-03-14T04:53:18;0.20;;;0.20;;
20142;SDS011;10509;46.476;7.134;2023-03-14T04:55:48;0.20;;;0.20;;
20142;SDS011;10509;46.476;7.134;2023-03-14T04:58:14;0.23;;;0.20;;
20142;SDS011;10509;46.476;7.134;2023-03-14T05:00:40;0.40;;;0.30;;
20142;SDS011;10509;46.476;7.134;2023-03-14T05:03:06;0.53;;;0.30;;
20142;SDS011;10509;46.476;7.134;2023-03-14T05:05:32;0.40;;;0.20;;
20142;SDS011;10509;46.476;7.134;2023-03-14T05:07:58;0.73;;;0.20;;
20142;SDS011;10509;46.476;7.134;2023-03-14T05:10:24;0.57;;;0.40;;
20142;SDS011;10509;46.476;7.134;2023-03-14T05:12:50;0.40;;;0.40;;
20142;SDS011;10509;46.476;7.134;2023-03-14T05:15:16;0.80;;;0.80;;
20142;SDS011;10509;46.476;7.134;2023-03-14T05:17:42;0.60;;;0.50;;
20142;SDS011;10509;46.476;7.134;2023-03-14T05:20:08;1.23;;;0.40;;
20142;SDS011;10509;46.476;7.134;2023-03-14T05:22:37;0.40;;;0.40;;
20142;SDS011;10509;46.476;7.134;2023-03-14T05:25:03;0.50;;;0.40;;
20142;SDS011;10509;46.476;7.134;2023-03-14T05:27:30;1.00;;;0.40;;
20142;SDS011;10509;46.476;7.134;2023-03-14T05:29:56;0.40;;;0.40;;
20142;SDS011;10509;46.476;7.134;2023-03-14T05:32:22;0.50;;;0.40;;
20142;SDS011;10509;46.476;7.134;2023-03-14T05:34:48;0.40;;;0.40;;
20142;SDS011;10509;46.476;7.134;2023-03-14T05:37:14;1.27;;;0.30;;
20142;SDS011;10509;46.476;7.134;2023-03-14T05:39:40;0.60;;;0.33;;
20142;SDS011;10509;46.476;7.134;2023-03-14T05:42:06;1.67;;;1.40;;
20142;SDS011;10509;46.476;7.134;2023-03-14T05:44:32;0.50;;;0.40;;
20142;SDS011;10509;46.476;7.134;2023-03-14T05:46:58;0.50;;;0.30;;
20142;SDS011;10509;46.476;7.134;2023-03-14T05:49:24;0.47;;;0.20;;
20142;SDS011;10509;46.476;7.134;2023-03-14T05:51:50;0.20;;;0.20;;
20142;SDS011;10509;46.476;7.134;2023-03-14T05:54:16;0.20;;;0.20;;
20142;SDS011;10509;46.476;7.134;2023-03-14T05:56:43;0.30;;;0.20;;
20142;SDS011;10509;46.476;7.134;2023-03-14T05:59:09;0.30;;;0.30;;
20142;SDS011;10509;46.476;7.134;2023-03-14T06:01:35;1.27;;;0.30;;
20142;SDS011;10509;46.476;7.134;2023-03-14T06:04:01;0.67;;;0.30;;
20142;SDS011;10509;46.476;7.134;2023-03-14T06:06:27;0.33;;;0.33;;
20142;SDS011;10509;46.476;7.134;2023-03-14T06:08:53;0.70;;;0.40;;
20142;SDS011;10509;46.476;7.134;2023-03-14T06:11:19;0.73;;;0.40;;
20142;SDS011;10509;46.476;7.134;2023-03-14T06:13:45;0.97;;;0.70;;
20142;SDS011;10509;46.476;7.134;2023-03-14T06:16:11;2.47;;;1.80;;
20142;SDS011;10509;46.476;7.134;2023-03-14T06:18:38;1.30;;;0.60;;
20142;SDS011;10509;46.476;7.134;2023-03-14T06:21:04;0.40;;;0.40;;
20142;SDS011;10509;46.476;7.134;2023-03-14T06:23:30;0.67;;;0.57;;
20142;SDS011;10509;46.476;7.134;2023-03-14T06:25:56;2.57;;;1.97;;
20142;SDS011;10509;46.476;7.134;2023-03-14T06:28:22;4.10;;;3.80;;
20142;SDS011;10509;46.476;7.134;2023-03-14T06:30:49;2.30;;;2.10;;
20142;SDS011;10509;46.476;7.134;2023-03-14T06:33:15;2.60;;;2.40;;
20142;SDS011;10509;46.476;7.134;2023-03-14T06:35:41;3.00;;;2.80;;
20142;SDS011;10509;46.476;7.134;2023-03-14T06:38:07;2.50;;;2.30;;
20142;SDS011;10509;46.476;7.134;2023-03-14T06:40:33;1.30;;;1.00;;
20142;SDS011;10509;46.476;7.134;2023-03-14T06:42:59;0.50;;;0.50;;
20142;SDS011;10509;46.476;7.134;2023-03-14T06:45:25;0.60;;;0.60;;
20142;SDS011;10509;46.476;7.134;2023-03-14T06:47:51;1.23;;;0.80;;
20142;SDS011;10509;46.476;7.134;2023-03-14T06:50:17;0.70;;;0.50;;
20142;SDS011;10509;46.476;7.134;2023-03-14T06:52:43;1.87;;;0.57;;
20142;SDS011;10509;46.476;7.134;2023-03-14T06:55:13;0.70;;;0.40;;
20142;SDS011;10509;46.476;7.134;2023-03-14T06:57:39;0.40;;;0.40;;
20142;SDS011;10509;46.476;7.134;2023-03-14T07:00:05;0.40;;;0.40;;
20142;SDS011;10509;46.476;7.134;2023-03-14T07:02:31;0.40;;;0.40;;
20142;SDS011;10509;46.476;7.134;2023-03-14T07:04:59;0.77;;;0.50;;
20142;SDS011;10509;46.476;7.134;2023-03-14T07:07:25;0.70;;;0.60;;
20142;SDS011;10509;46.476;7.134;2023-03-14T07:09:51;0.70;;;0.50;;
20142;SDS011;10509;46.476;7.134;2023-03-14T07:12:17;0.87;;;0.70;;
20142;SDS011;10509;46.476;7.134;2023-03-14T07:14:43;0.63;;;0.50;;
20142;SDS011;10509;46.476;7.134;2023-03-14T07:17:09;0.50;;;0.50;;
20142;SDS011;10509;46.476;7.134;2023-03-14T07:19:36;1.43;;;0.70;;
20142;SDS011;10509;46.476;7.134;2023-03-14T07:22:03;0.63;;;0.63;;
20142;SDS011;10509;46.476;7.134;2023-03-14T07:24:29;1.47;;;0.60;;
20142;SDS011;10509;46.476;7.134;2023-03-14T07:26:55;1.10;;;0.70;;
20142;SDS011;10509;46.476;7.134;2023-03-14T07:29:21;0.70;;;0.70;;
20142;SDS011;10509;46.476;7.134;2023-03-14T07:31:47;0.80;;;0.80;;
20142;SDS011;10509;46.476;7.134;2023-03-14T07:34:13;1.90;;;0.70;;
20142;SDS011;10509;46.476;7.134;2023-03-14T07:36:39;0.43;;;0.40;;
20142;SDS011;10509;46.476;7.134;2023-03-14T07:39:05;0.63;;;0.40;;
20142;SDS011;10509;46.476;7.134;2023-03-14T07:41:31;0.20;;;0.20;;
20142;SDS011;10509;46.476;7.134;2023-03-14T07:43:57;0.93;;;0.20;;
20142;SDS011;10509;46.476;7.134;2023-03-14T07:46:23;0.33;;;0.33;;
20142;SDS011;10509;46.476;7.134;2023-03-14T07:48:49;2.10;;;1.90;;
20142;SDS011;10509;46.476;7.134;2023-03-14T07:51:15;1.23;;;0.80;;
20142;SDS011;10509;46.476;7.134;2023-03-14T07:53:41;0.60;;;0.20;;
20142;SDS011;10509;46.476;7.134;2023-03-14T07:56:08;0.60;;;0.10;;
20142;SDS011;10509;46.476;7.134;2023-03-14T07:58:34;2.50;;;1.60;;
20142;SDS011;10509;46.476;7.134;2023-03-14T08:01:00;4.70;;;4.30;;
20142;SDS011;10509;46.476;7.134;2023-03-14T08:03:26;0.90;;;0.53;;
20142;SDS011;10509;46.476;7.134;2023-03-14T08:05:52;0.23;;;0.20;;
20142;SDS011;10509;46.476;7.134;2023-03-14T08:08:18;1.80;;;1.70;;
20142;SDS011;10509;46.476;7.134;2023-03-14T08:10:44;2.87;;;2.67;;
20142;SDS011;10509;46.476;7.134;2023-03-14T08:13:11;2.43;;;2.33;;
20142;SDS011;10509;46.476;7.134;2023-03-14T08:15:37;0.70;;;0.60;;
20142;SDS011;10509;46.476;7.134;2023-03-14T08:18:03;0.53;;;0.40;;
20142;SDS011;10509;46.476;7.134;2023-03-14T08:20:30;1.23;;;0.40;;
20142;SDS011;10509;46.476;7.134;2023-03-14T08:22:56;0.30;;;0.30;;
20142;SDS011;10509;46.476;7.134;2023-03-14T08:25:23;0.53;;;0.30;;
20142;SDS011;10509;46.476;7.134;2023-03-14T08:27:49;1.03;;;0.40;;
20142;SDS011;10509;46.476;7.134;2023-03-14T08:30:18;0.90;;;0.47;;
20142;SDS011;10509;46.476;7.134;2023-03-14T08:32:44;0.60;;;0.30;;
20142;SDS011;10509;46.476;7.134;2023-03-14T08:35:11;0.47;;;0.20;;
20142;SDS011;10509;46.476;7.134;2023-03-14T08:37:37;0.40;;;0.20;;
20142;SDS011;10509;46.476;7.134;2023-03-14T08:40:04;0.60;;;0.30;;
20142;SDS011;10509;46.476;7.134;2023-03-14T08:42:38;0.97;;;0.60;;
20142;SDS011;10509;46.476;7.134;2023-03-14T08:45:04;4.23;;;2.43;;
20142;SDS011;10509;46.476;7.134;2023-03-14T08:47:31;1.00;;;0.70;;
20142;SDS011;10509;46.476;7.134;2023-03-14T08:49:57;0.80;;;0.70;;
20142;SDS011;10509;46.476;7.134;2023-03-14T08:52:23;1.23;;;0.70;;
20142;SDS011;10509;46.476;7.134;2023-03-14T08:54:49;1.20;;;0.80;;
20142;SDS011;10509;46.476;7.134;2023-03-14T08:57:15;3.40;;;3.10;;
20142;SDS011;10509;46.476;7.134;2023-03-14T08:59:41;2.00;;;1.00;;
20142;SDS011;10509;46.476;7.134;2023-03-14T09:02:09;1.13;;;0.80;;
20142;SDS011;10509;46.476;7.134;2023-03-14T09:04:35;2.10;;;1.73;;
20142;SDS011;10509;46.476;7.134;2023-03-14T09:07:01;2.73;;;2.47;;
20142;SDS011;10509;46.476;7.134;2023-03-14T09:09:28;4.10;;;3.70;;
20142;SDS011;10509;46.476;7.134;2023-03-14T09:11:55;3.17;;;2.93;;
20142;SDS011;10509;46.476;7.134;2023-03-14T09:14:21;4.10;;;3.17;;
20142;SDS011;10509;46.476;7.134;2023-03-14T09:16:47;3.13;;;2.83;;
20142;SDS011;10509;46.476;7.134;2023-03-14T09:19:13;4.70;;;4.30;;
20142;SDS011;10509;46.476;7.134;2023-03-14T09:21:39;5.60;;;5.10;;
20142;SDS011;10509;46.476;7.134;2023-03-14T09:24:05;6.70;;;6.10;;
20142;SDS011;10509;46.476;7.134;2023-03-14T09:26:31;4.63;;;4.23;;
20142;SDS011;10509;46.476;7.134;2023-03-14T09:28:57;4.50;;;4.10;;
20142;SDS011;10509;46.476;7.134;2023-03-14T09:31:23;2.23;;;1.87;;
20142;SDS011;10509;46.476;7.134;2023-03-14T09:33:49;0.50;;;0.50;;
20142;SDS011;10509;46.476;7.134;2023-03-14T09:36:15;0.40;;;0.40;;
20142;SDS011;10509;46.476;7.134;2023-03-14T09:38:42;1.27;;;1.10;;
20142;SDS011;10509;46.476;7.134;2023-03-14T09:41:15;3.53;;;3.23;;
20142;SDS011;10509;46.476;7.134;2023-03-14T09:43:42;3.47;;;3.17;;
20142;SDS011;10509;46.476;7.134;2023-03-14T09:46:09;3.90;;;2.53;;
20142;SDS011;10509;46.476;7.134;2023-03-14T09:48:36;0.43;;;0.40;;
20142;SDS011;10509;46.476;7.134;2023-03-14T09:51:06;0.47;;;0.30;;
20142;SDS011;10509;46.476;7.134;2023-03-14T09:53:37;0.90;;;0.60;;
20142;SDS011;10509;46.476;7.134;2023-03-14T09:56:07;0.77;;;0.30;;
20142;SDS011;10509;46.476;7.134;2023-03-14T09:58:34;0.33;;;0.20;;
20142;SDS011;10509;46.476;7.134;2023-03-14T10:01:01;0.30;;;0.30;;
20142;SDS011;10509;46.476;7.134;2023-03-14T10:03:31;0.40;;;0.30;;
20142;SDS011;10509;46.476;7.134;2023-03-14T10:05:58;0.60;;;0.40;;
20142;SDS011;10509;46.476;7.134;2023-03-14T10:08:24;1.50;;;0.30;;
20142;SDS011;10509;46.476;7.134;2023-03-14T10:10:50;0.83;;;0.47;;
20142;SDS011;10509;46.476;7.134;2023-03-14T10:13:25;0.23;;;0.20;;
20142;SDS011;10509;46.476;7.134;2023-03-14T10:15:58;0.63;;;0.30;;
20142;SDS011;10509;46.476;7.134;2023-03-14T10:18:25;1.00;;;0.40;;
20142;SDS011;10509;46.476;7.134;2023-03-14T10:21:05;0.30;;;0.30;;
20142;SDS011;10509;46.476;7.134;2023-03-14T10:23:32;0.63;;;0.53;;
20142;SDS011;10509;46.476;7.134;2023-03-14T10:26:11;0.43;;;0.30;;
20142;SDS011;10509;46.476;7.134;2023-03-14T10:28:53;0.30;;;0.30;;
20142;SDS011;10509;46.476;7.134;2023-03-14T10:31:26;0.67;;;0.60;;
20142;SDS011;10509;46.476;7.134;2023-03-14T10:34:04;0.60;;;0.30;;
20142;SDS011;10509;46.476;7.134;2023-03-14T10:36:32;1.03;;;0.37;;
20142;SDS011;10509;46.476;7.134;2023-03-14T10:41:43;0.50;;;0.37;;
20142;SDS011;10509;46.476;7.134;2023-03-14T10:44:12;1.03;;;0.50;;
20142;SDS011;10509;46.476;7.134;2023-03-14T10:46:38;1.33;;;0.30;;
20142;SDS011;10509;46.476;7.134;2023-03-14T10:49:05;0.30;;;0.20;;
20142;SDS011;10509;46.476;7.134;2023-03-14T10:51:31;0.30;;;0.30;;
20142;SDS011;10509;46.476;7.134;2023-03-14T10:56:26;0.33;;;0.30;;
20142;SDS011;10509;46.476;7.134;2023-03-14T10:58:53;0.20;;;0.20;;
20142;SDS011;10509;46.476;7.134;2023-03-14T11:01:39;0.57;;;0.20;;
20142;SDS011;10509;46.476;7.134;2023-03-14T11:06:39;0.30;;;0.20;;
20142;SDS011;10509;46.476;7.134;2023-03-14T11:11:37;0.70;;;0.37;;
20142;SDS011;10509;46.476;7.134;2023-03-14T11:16:52;0.50;;;0.20;;
20142;SDS011;10509;46.476;7.134;2023-03-14T11:32:11;1.00;;;0.50;;
20142;SDS011;10509;46.476;7.134;2023-03-14T11:34:51;0.30;;;0.20;;
20142;SDS011;10509;46.476;7.134;2023-03-14T11:39:59;0.20;;;0.20;;
20142;SDS011;10509;46.476;7.134;2023-03-14T11:42:26;0.50;;;0.20;;
20142;SDS011;10509;46.476;7.134;2023-03-14T11:44:52;0.13;;;0.13;;
20142;SDS011;10509;46.476;7.134;2023-03-14T11:47:24;0.20;;;0.10;;
20142;SDS011;10509;46.476;7.134;2023-03-14T11:49:51;0.37;;;0.20;;
20142;SDS011;10509;46.476;7.134;2023-03-14T11:52:28;0.10;;;0.10;;
20142;SDS011;10509;46.476;7.134;2023-03-14T11:54:58;0.10;;;0.10;;
20142;SDS011;10509;46.476;7.134;2023-03-14T11:57:25;0.43;;;0.30;;
20142;SDS011;10509;46.476;7.134;2023-03-14T12:02:22;0.40;;;0.20;;
20142;SDS011;10509;46.476;7.134;2023-03-14T12:07:38;0.97;;;0.40;;
20142;SDS011;10509;46.476;7.134;2023-03-14T12:10:06;0.63;;;0.40;;
20142;SDS011;10509;46.476;7.134;2023-03-14T12:12:32;0.73;;;0.20;;
20142;SDS011;10509;46.476;7.134;2023-03-14T12:14:59;0.20;;;0.20;;
20142;SDS011;10509;46.476;7.134;2023-03-14T12:17:39;0.10;;;0.10;;
20142;SDS011;10509;46.476;7.134;2023-03-14T12:20:19;0.20;;;0.20;;
20142;SDS011;10509;46.476;7.134;2023-03-14T12:28:15;1.53;;;0.93;;
20142;SDS011;10509;46.476;7.134;2023-03-14T12:30:37;1.00;;;0.70;;
20142;SDS011;10509;46.476;7.134;2023-03-14T12:38:05;0.20;;;0.10;;
20142;SDS011;10509;46.476;7.134;2023-03-14T12:40:35;0.10;;;0.10;;
20142;SDS011;10509;46.476;7.134;2023-03-14T12:43:10;0.63;;;0.17;;
20142;SDS011;10509;46.476;7.134;2023-03-14T12:46:32;0.10;;;0.10;;
20142;SDS011;10509;46.476;7.134;2023-03-14T12:48:38;0.20;;;0.20;;
20142;SDS011;10509;46.476;7.134;2023-03-14T12:51:11;0.27;;;0.20;;
20142;SDS011;10509;46.476;7.134;2023-03-14T12:53:53;0.50;;;0.30;;
20142;SDS011;10509;46.476;7.134;2023-03-14T13:01:17;0.20;;;0.20;;
20142;SDS011;10509;46.476;7.134;2023-03-14T13:06:10;0.50;;;0.33;;
20142;SDS011;10509;46.476;7.134;2023-03-14T13:08:44;0.50;;;0.30;;
20142;SDS011;10509;46.476;7.134;2023-03-14T13:11:15;0.70;;;0.30;;
20142;SDS011;10509;46.476;7.134;2023-03-14T13:13:45;1.60;;;0.20;;
20142;SDS011;10509;46.476;7.134;2023-03-14T13:16:15;0.10;;;0.10;;
20142;SDS011;10509;46.476;7.134;2023-03-14T13:18:42;0.60;;;0.13;;
20142;SDS011;10509;46.476;7.134;2023-03-14T13:23:37;0.40;;;0.20;;
20142;SDS011;10509;46.476;7.134;2023-03-14T13:26:05;1.00;;;0.57;;
20142;SDS011;10509;46.476;7.134;2023-03-14T13:28:31;0.33;;;0.30;;
20142;SDS011;10509;46.476;7.134;2023-03-14T13:31:01;0.10;;;0.10;;
20142;SDS011;10509;46.476;7.134;2023-03-14T13:33:28;0.20;;;0.20;;
20142;SDS011;10509;46.476;7.134;2023-03-14T13:35:55;0.20;;;0.20;;
20142;SDS011;10509;46.476;7.134;2023-03-14T13:38:23;0.67;;;0.20;;
20142;SDS011;10509;46.476;7.134;2023-03-14T13:40:50;0.20;;;0.20;;
20142;SDS011;10509;46.476;7.134;2023-03-14T13:43:17;0.33;;;0.30;;
20142;SDS011;10509;46.476;7.134;2023-03-14T13:48:25;0.70;;;0.30;;
20142;SDS011;10509;46.476;7.134;2023-03-14T13:50:53;0.67;;;0.60;;
20142;SDS011;10509;46.476;7.134;2023-03-14T13:53:19;1.00;;;0.50;;
20142;SDS011;10509;46.476;7.134;2023-03-14T13:55:46;0.87;;;0.40;;
20142;SDS011;10509;46.476;7.134;2023-03-14T13:58:23;0.20;;;0.20;;
20142;SDS011;10509;46.476;7.134;2023-03-14T14:00:53;0.27;;;0.20;;
20142;SDS011;10509;46.476;7.134;2023-03-14T14:03:20;1.13;;;0.30;;
20142;SDS011;10509;46.476;7.134;2023-03-14T14:05:46;0.40;;;0.40;;
20142;SDS011;10509;46.476;7.134;2023-03-14T14:08:12;0.33;;;0.30;;
20142;SDS011;10509;46.476;7.134;2023-03-14T14:10:38;0.30;;;0.20;;
20142;SDS011;10509;46.476;7.134;2023-03-14T14:13:06;0.67;;;0.30;;
20142;SDS011;10509;46.476;7.134;2023-03-14T14:15:33;1.07;;;0.30;;
20142;SDS011;10509;46.476;7.134;2023-03-14T14:18:05;0.50;;;0.30;;
20142;SDS011;10509;46.476;7.134;2023-03-14T14:22:59;0.60;;;0.30;;
20142;SDS011;10509;46.476;7.134;2023-03-14T14:25:26;0.80;;;0.20;;
20142;SDS011;10509;46.476;7.134;2023-03-14T14:27:53;0.50;;;0.40;;
20142;SDS011;10509;46.476;7.134;2023-03-14T14:32:46;1.33;;;0.50;;
20142;SDS011;10509;46.476;7.134;2023-03-14T14:35:30;0.60;;;0.40;;
20142;SDS011;10509;46.476;7.134;2023-03-14T14:37:56;0.40;;;0.37;;
20142;SDS011;10509;46.476;7.134;2023-03-14T14:40:23;0.40;;;0.30;;
20142;SDS011;10509;46.476;7.134;2023-03-14T14:42:50;0.73;;;0.40;;
20142;SDS011;10509;46.476;7.134;2023-03-14T14:45:17;0.43;;;0.27;;
20142;SDS011;10509;46.476;7.134;2023-03-14T14:47:51;0.50;;;0.30;;
20142;SDS011;10509;46.476;7.134;2023-03-14T14:50:27;2.10;;;0.47;;
20142;SDS011;10509;46.476;7.134;2023-03-14T14:52:56;0.50;;;0.30;;
20142;SDS011;10509;46.476;7.134;2023-03-14T14:55:22;0.40;;;0.30;;
20142;SDS011;10509;46.476;7.134;2023-03-14T14:57:52;1.17;;;0.30;;
20142;SDS011;10509;46.476;7.134;2023-03-14T15:00:22;2.60;;;0.30;;
20142;SDS011;10509;46.476;7.134;2023-03-14T15:02:59;1.07;;;0.30;;
20142;SDS011;10509;46.476;7.134;2023-03-14T15:05:26;0.80;;;0.50;;
20142;SDS011;10509;46.476;7.134;2023-03-14T15:07:55;0.77;;;0.47;;
20142;SDS011;10509;46.476;7.134;2023-03-14T15:10:23;0.67;;;0.40;;
20142;SDS011;10509;46.476;7.134;2023-03-14T15:12:49;1.03;;;0.37;;
20142;SDS011;10509;46.476;7.134;2023-03-14T15:15:15;0.67;;;0.40;;
20142;SDS011;10509;46.476;7.134;2023-03-14T15:17:42;1.30;;;0.60;;
20142;SDS011;10509;46.476;7.134;2023-03-14T15:20:14;0.87;;;0.40;;
20142;SDS011;10509;46.476;7.134;2023-03-14T15:22:41;0.30;;;0.30;;
20142;SDS011;10509;46.476;7.134;2023-03-14T15:25:07;0.57;;;0.30;;
20142;SDS011;10509;46.476;7.134;2023-03-14T15:27:34;1.37;;;0.40;;
20142;SDS011;10509;46.476;7.134;2023-03-14T15:30:01;0.60;;;0.30;;
20142;SDS011;10509;46.476;7.134;2023-03-14T15:32:27;0.87;;;0.20;;
20142;SDS011;10509;46.476;7.134;2023-03-14T15:34:56;0.20;;;0.20;;
20142;SDS011;10509;46.476;7.134;2023-03-14T15:37:22;0.70;;;0.30;;
20142;SDS011;10509;46.476;7.134;2023-03-14T15:39:48;2.10;;;0.30;;
20142;SDS011;10509;46.476;7.134;2023-03-14T15:42:14;0.87;;;0.30;;
20142;SDS011;10509;46.476;7.134;2023-03-14T15:44:40;1.37;;;0.40;;
20142;SDS011;10509;46.476;7.134;2023-03-14T15:47:08;0.57;;;0.30;;
20142;SDS011;10509;46.476;7.134;2023-03-14T15:49:34;0.57;;;0.20;;
20142;SDS011;10509;46.476;7.134;2023-03-14T15:52:00;0.33;;;0.30;;
20142;SDS011;10509;46.476;7.134;2023-03-14T15:54:27;1.37;;;0.30;;
20142;SDS011;10509;46.476;7.134;2023-03-14T15:56:53;0.60;;;0.30;;
20142;SDS011;10509;46.476;7.134;2023-03-14T15:59:20;0.60;;;0.30;;
20142;SDS011;10509;46.476;7.134;2023-03-14T16:01:46;0.33;;;0.30;;
20142;SDS011;10509;46.476;7.134;2023-03-14T16:04:13;0.63;;;0.30;;
20142;SDS011;10509;46.476;7.134;2023-03-14T16:06:39;0.97;;;0.50;;
20142;SDS011;10509;46.476;7.134;2023-03-14T16:09:05;0.30;;;0.20;;
20142;SDS011;10509;46.476;7.134;2023-03-14T16:11:32;0.50;;;0.30;;
20142;SDS011;10509;46.476;7.134;2023-03-14T16:13:58;0.77;;;0.30;;
20142;SDS011;10509;46.476;7.134;2023-03-14T16:16:24;0.67;;;0.30;;
20142;SDS011;10509;46.476;7.134;2023-03-14T16:18:50;0.60;;;0.30;;
20142;SDS011;10509;46.476;7.134;2023-03-14T16:21:17;0.33;;;0.30;;
20142;SDS011;10509;46.476;7.134;2023-03-14T16:23:43;0.87;;;0.40;;
20142;SDS011;10509;46.476;7.134;2023-03-14T16:26:10;0.57;;;0.20;;
20142;SDS011;10509;46.476;7.134;2023-03-14T16:28:37;0.80;;;0.40;;
20142;SDS011;10509;46.476;7.134;2023-03-14T16:31:04;0.20;;;0.20;;
20142;SDS011;10509;46.476;7.134;2023-03-14T16:33:31;1.10;;;0.40;;
20142;SDS011;10509;46.476;7.134;2023-03-14T16:35:58;0.90;;;0.40;;
20142;SDS011;10509;46.476;7.134;2023-03-14T16:38:25;0.73;;;0.40;;
20142;SDS011;10509;46.476;7.134;2023-03-14T16:41:09;0.80;;;0.30;;
20142;SDS011;10509;46.476;7.134;2023-03-14T16:43:36;1.03;;;0.43;;
20142;SDS011;10509;46.476;7.134;2023-03-14T16:46:03;1.20;;;0.40;;
20142;SDS011;10509;46.476;7.134;2023-03-14T16:48:29;0.73;;;0.20;;
20142;SDS011;10509;46.476;7.134;2023-03-14T16:50:56;0.47;;;0.37;;
20142;SDS011;10509;46.476;7.134;2023-03-14T16:53:22;0.70;;;0.40;;
20142;SDS011;10509;46.476;7.134;2023-03-14T16:55:49;0.60;;;0.40;;
20142;SDS011;10509;46.476;7.134;2023-03-14T16:58:15;0.67;;;0.40;;
20142;SDS011;10509;46.476;7.134;2023-03-14T17:00:43;0.47;;;0.30;;
20142;SDS011;10509;46.476;7.134;2023-03-14T17:03:10;0.87;;;0.30;;
20142;SDS011;10509;46.476;7.134;2023-03-14T17:05:36;1.03;;;0.50;;